sensor_id;sensor_type;location;lat;lon;timestamp;P1;durP1;ratioP1;P2;durP2;ratioP2
44750;SDS011;30477;48.224;11.470;2023-02-07T00:01:07;36.67;;;20.13;;
44750;SDS011;30477;48.224;11.470;2023-02-07T00:03:34;33.35;;;20.27;;
44750;SDS011;30477;48.224;11.470;2023-02-07T00:06:04;33.95;;;20.58;;
44750;SDS011;30477;48.224;11.470;2023-02-07T00:08:34;31.88;;;19.80;;
44750;SDS011;30477;48.224;11.470;2023-02-07T00:11:08;28.77;;;19.92;;
44750;SDS011;30477;48.224;11.470;2023-02-07T00:13:35;31.88;;;19.90;;
44750;SDS011;30477;48.224;11.470;2023-02-07T00:16:02;31.67;;;20.10;;
44750;SDS011;30477;48.224;11.470;2023-02-07T00:18:29;32.42;;;20.02;;
44750;SDS011;30477;48.224;11.470;2023-02-07T00:20:58;28.42;;;19.45;;
44750;SDS011;30477;48.224;11.470;2023-02-07T00:23:24;29.40;;;17.77;;
44750;SDS011;30477;48.224;11.470;2023-02-07T00:25:49;32.03;;;19.77;;
44750;SDS011;30477;48.224;11.470;2023-02-07T00:28:14;30.10;;;18.33;;
44750;SDS011;30477;48.224;11.470;2023-02-07T00:30:40;31.20;;;19.60;;
44750;SDS011;30477;48.224;11.470;2023-02-07T00:33:05;32.73;;;18.97;;
44750;SDS011;30477;48.224;11.470;2023-02-07T00:35:30;32.37;;;19.00;;
44750;SDS011;30477;48.224;11.470;2023-02-07T00:37:55;34.43;;;20.43;;
44750;SDS011;30477;48.224;11.470;2023-02-07T00:40:21;31.13;;;19.13;;
44750;SDS011;30477;48.224;11.470;2023-02-07T00:45:12;28.63;;;18.50;;
44750;SDS011;30477;48.224;11.470;2023-02-07T00:47:38;27.40;;;19.07;;
44750;SDS011;30477;48.224;11.470;2023-02-07T00:50:04;30.40;;;18.88;;
44750;SDS011;30477;48.224;11.470;2023-02-07T00:52:29;32.63;;;20.15;;
44750;SDS011;30477;48.224;11.470;2023-02-07T00:54:55;29.35;;;19.88;;
44750;SDS011;30477;48.224;11.470;2023-02-07T00:57:20;30.40;;;19.90;;
44750;SDS011;30477;48.224;11.470;2023-02-07T00:59:45;33.37;;;19.20;;
44750;SDS011;30477;48.224;11.470;2023-02-07T01:02:11;29.90;;;19.70;;
44750;SDS011;30477;48.224;11.470;2023-02-07T01:04:36;30.63;;;19.03;;
44750;SDS011;30477;48.224;11.470;2023-02-07T01:07:02;29.17;;;19.03;;
44750;SDS011;30477;48.224;11.470;2023-02-07T01:09:27;30.90;;;18.67;;
44750;SDS011;30477;48.224;11.470;2023-02-07T01:11:52;28.67;;;19.37;;
44750;SDS011;30477;48.224;11.470;2023-02-07T01:14:19;29.45;;;19.30;;
44750;SDS011;30477;48.224;11.470;2023-02-07T01:16:44;31.97;;;20.30;;
44750;SDS011;30477;48.224;11.470;2023-02-07T01:19:10;31.67;;;19.03;;
44750;SDS011;30477;48.224;11.470;2023-02-07T01:21:36;32.67;;;20.48;;
44750;SDS011;30477;48.224;11.470;2023-02-07T01:24:01;29.38;;;18.35;;
44750;SDS011;30477;48.224;11.470;2023-02-07T01:26:27;31.45;;;20.17;;
44750;SDS011;30477;48.224;11.470;2023-02-07T01:28:53;27.70;;;17.60;;
44750;SDS011;30477;48.224;11.470;2023-02-07T01:31:20;32.92;;;18.75;;
44750;SDS011;30477;48.224;11.470;2023-02-07T01:33:46;29.23;;;18.63;;
44750;SDS011;30477;48.224;11.470;2023-02-07T01:36:13;31.80;;;19.88;;
44750;SDS011;30477;48.224;11.470;2023-02-07T01:38:40;31.63;;;19.98;;
44750;SDS011;30477;48.224;11.470;2023-02-07T01:41:06;28.63;;;18.88;;
44750;SDS011;30477;48.224;11.470;2023-02-07T01:43:32;29.35;;;19.23;;
44750;SDS011;30477;48.224;11.470;2023-02-07T01:45:58;31.75;;;19.85;;
44750;SDS011;30477;48.224;11.470;2023-02-07T01:48:30;31.87;;;20.07;;
44750;SDS011;30477;48.224;11.470;2023-02-07T01:50:59;21.25;;;13.30;;
44750;SDS011;30477;48.224;11.470;2023-02-07T01:53:28;29.77;;;19.45;;
44750;SDS011;30477;48.224;11.470;2023-02-07T01:55:56;31.40;;;19.15;;
44750;SDS011;30477;48.224;11.470;2023-02-07T01:58:25;32.17;;;19.55;;
44750;SDS011;30477;48.224;11.470;2023-02-07T02:00:52;30.02;;;19.73;;
44750;SDS011;30477;48.224;11.470;2023-02-07T02:03:18;31.38;;;19.05;;
44750;SDS011;30477;48.224;11.470;2023-02-07T02:05:44;35.92;;;19.88;;
44750;SDS011;30477;48.224;11.470;2023-02-07T02:10:48;29.92;;;19.33;;
44750;SDS011;30477;48.224;11.470;2023-02-07T02:16:10;30.67;;;19.40;;
44750;SDS011;30477;48.224;11.470;2023-02-07T02:19:04;31.90;;;18.63;;
44750;SDS011;30477;48.224;11.470;2023-02-07T02:22:00;33.13;;;19.23;;
44750;SDS011;30477;48.224;11.470;2023-02-07T02:35:31;28.25;;;17.60;;
44750;SDS011;30477;48.224;11.470;2023-02-07T02:38:15;32.10;;;19.60;;
44750;SDS011;30477;48.224;11.470;2023-02-07T02:45:49;30.25;;;18.00;;
44750;SDS011;30477;48.224;11.470;2023-02-07T02:48:19;30.63;;;18.50;;
44750;SDS011;30477;48.224;11.470;2023-02-07T02:50:45;27.55;;;18.20;;
44750;SDS011;30477;48.224;11.470;2023-02-07T02:53:12;27.90;;;17.15;;
44750;SDS011;30477;48.224;11.470;2023-02-07T03:06:09;26.35;;;17.23;;
44750;SDS011;30477;48.224;11.470;2023-02-07T03:08:59;31.70;;;18.33;;
44750;SDS011;30477;48.224;11.470;2023-02-07T03:11:48;27.80;;;18.02;;
44750;SDS011;30477;48.224;11.470;2023-02-07T03:14:23;25.35;;;17.40;;
44750;SDS011;30477;48.224;11.470;2023-02-07T03:17:13;25.50;;;17.30;;
44750;SDS011;30477;48.224;11.470;2023-02-07T03:20:07;27.15;;;17.30;;
44750;SDS011;30477;48.224;11.470;2023-02-07T03:22:38;31.60;;;17.35;;
44750;SDS011;30477;48.224;11.470;2023-02-07T03:25:06;27.13;;;16.58;;
44750;SDS011;30477;48.224;11.470;2023-02-07T03:27:33;27.73;;;17.40;;
44750;SDS011;30477;48.224;11.470;2023-02-07T03:30:03;27.63;;;17.60;;
44750;SDS011;30477;48.224;11.470;2023-02-07T03:32:42;28.80;;;17.05;;
44750;SDS011;30477;48.224;11.470;2023-02-07T03:37:43;32.88;;;16.90;;
44750;SDS011;30477;48.224;11.470;2023-02-07T03:40:12;26.90;;;16.63;;
44750;SDS011;30477;48.224;11.470;2023-02-07T03:42:41;30.55;;;17.65;;
44750;SDS011;30477;48.224;11.470;2023-02-07T03:45:15;28.65;;;17.52;;
44750;SDS011;30477;48.224;11.470;2023-02-07T03:47:43;29.05;;;17.92;;
44750;SDS011;30477;48.224;11.470;2023-02-07T03:50:08;28.98;;;17.60;;
44750;SDS011;30477;48.224;11.470;2023-02-07T03:55:00;28.07;;;16.10;;
44750;SDS011;30477;48.224;11.470;2023-02-07T03:57:25;28.23;;;16.77;;
44750;SDS011;30477;48.224;11.470;2023-02-07T03:59:50;24.33;;;16.80;;
44750;SDS011;30477;48.224;11.470;2023-02-07T04:02:16;28.23;;;17.53;;
44750;SDS011;30477;48.224;11.470;2023-02-07T04:04:41;25.70;;;16.73;;
44750;SDS011;30477;48.224;11.470;2023-02-07T04:07:06;28.27;;;17.33;;
44750;SDS011;30477;48.224;11.470;2023-02-07T04:09:32;30.53;;;17.77;;
44750;SDS011;30477;48.224;11.470;2023-02-07T04:11:57;28.70;;;17.00;;
44750;SDS011;30477;48.224;11.470;2023-02-07T04:14:22;30.90;;;17.50;;
44750;SDS011;30477;48.224;11.470;2023-02-07T04:16:48;30.08;;;17.98;;
44750;SDS011;30477;48.224;11.470;2023-02-07T04:19:14;27.83;;;17.20;;
44750;SDS011;30477;48.224;11.470;2023-02-07T04:21:40;26.23;;;17.25;;
44750;SDS011;30477;48.224;11.470;2023-02-07T04:24:05;29.98;;;17.73;;
44750;SDS011;30477;48.224;11.470;2023-02-07T04:26:33;27.77;;;16.75;;
44750;SDS011;30477;48.224;11.470;2023-02-07T04:28:58;29.87;;;16.97;;
44750;SDS011;30477;48.224;11.470;2023-02-07T04:31:23;31.53;;;17.17;;
44750;SDS011;30477;48.224;11.470;2023-02-07T04:33:48;30.17;;;18.30;;
44750;SDS011;30477;48.224;11.470;2023-02-07T04:36:14;32.07;;;18.10;;
44750;SDS011;30477;48.224;11.470;2023-02-07T04:38:40;28.40;;;17.83;;
44750;SDS011;30477;48.224;11.470;2023-02-07T04:41:05;29.10;;;18.17;;
44750;SDS011;30477;48.224;11.470;2023-02-07T04:43:32;28.52;;;17.98;;
44750;SDS011;30477;48.224;11.470;2023-02-07T04:45:59;27.92;;;17.33;;
44750;SDS011;30477;48.224;11.470;2023-02-07T04:48:25;32.00;;;18.60;;
44750;SDS011;30477;48.224;11.470;2023-02-07T04:50:51;27.17;;;17.88;;
44750;SDS011;30477;48.224;11.470;2023-02-07T04:53:16;24.70;;;16.77;;
44750;SDS011;30477;48.224;11.470;2023-02-07T04:55:42;29.77;;;16.87;;
44750;SDS011;30477;48.224;11.470;2023-02-07T04:58:07;28.80;;;17.58;;
44750;SDS011;30477;48.224;11.470;2023-02-07T05:00:33;29.23;;;18.33;;
44750;SDS011;30477;48.224;11.470;2023-02-07T05:02:59;29.92;;;18.25;;
44750;SDS011;30477;48.224;11.470;2023-02-07T05:07:50;24.77;;;16.15;;
44750;SDS011;30477;48.224;11.470;2023-02-07T05:10:15;27.37;;;17.33;;
44750;SDS011;30477;48.224;11.470;2023-02-07T05:12:41;24.95;;;16.25;;
44750;SDS011;30477;48.224;11.470;2023-02-07T05:15:07;26.27;;;17.40;;
44750;SDS011;30477;48.224;11.470;2023-02-07T05:17:33;31.13;;;16.73;;
44750;SDS011;30477;48.224;11.470;2023-02-07T05:19:59;32.15;;;18.05;;
44750;SDS011;30477;48.224;11.470;2023-02-07T05:22:27;30.85;;;17.52;;
44750;SDS011;30477;48.224;11.470;2023-02-07T05:24:53;26.30;;;17.27;;
44750;SDS011;30477;48.224;11.470;2023-02-07T05:27:18;26.70;;;16.00;;
44750;SDS011;30477;48.224;11.470;2023-02-07T05:29:43;27.90;;;16.70;;
44750;SDS011;30477;48.224;11.470;2023-02-07T05:32:12;28.33;;;17.47;;
44750;SDS011;30477;48.224;11.470;2023-02-07T05:34:57;31.15;;;16.73;;
44750;SDS011;30477;48.224;11.470;2023-02-07T05:39:49;27.88;;;16.25;;
44750;SDS011;30477;48.224;11.470;2023-02-07T05:42:14;30.07;;;16.40;;
44750;SDS011;30477;48.224;11.470;2023-02-07T05:44:39;26.58;;;15.23;;
44750;SDS011;30477;48.224;11.470;2023-02-07T05:47:05;28.13;;;16.73;;
44750;SDS011;30477;48.224;11.470;2023-02-07T05:49:31;25.73;;;15.25;;
44750;SDS011;30477;48.224;11.470;2023-02-07T05:51:57;24.33;;;14.40;;
44750;SDS011;30477;48.224;11.470;2023-02-07T05:54:22;24.47;;;14.90;;
44750;SDS011;30477;48.224;11.470;2023-02-07T05:56:47;22.92;;;14.73;;
44750;SDS011;30477;48.224;11.470;2023-02-07T05:59:13;27.70;;;15.60;;
44750;SDS011;30477;48.224;11.470;2023-02-07T06:01:38;26.75;;;15.57;;
44750;SDS011;30477;48.224;11.470;2023-02-07T06:04:04;24.90;;;15.63;;
44750;SDS011;30477;48.224;11.470;2023-02-07T06:06:29;25.20;;;15.23;;
44750;SDS011;30477;48.224;11.470;2023-02-07T06:08:54;29.03;;;15.90;;
44750;SDS011;30477;48.224;11.470;2023-02-07T06:11:20;26.73;;;15.87;;
44750;SDS011;30477;48.224;11.470;2023-02-07T06:13:45;25.83;;;15.23;;
44750;SDS011;30477;48.224;11.470;2023-02-07T06:16:10;25.77;;;14.40;;
44750;SDS011;30477;48.224;11.470;2023-02-07T06:18:36;27.02;;;15.57;;
44750;SDS011;30477;48.224;11.470;2023-02-07T06:21:02;24.52;;;14.77;;
44750;SDS011;30477;48.224;11.470;2023-02-07T06:23:28;24.88;;;15.40;;
44750;SDS011;30477;48.224;11.470;2023-02-07T06:25:53;31.83;;;15.80;;
44750;SDS011;30477;48.224;11.470;2023-02-07T06:28:19;24.70;;;15.07;;
44750;SDS011;30477;48.224;11.470;2023-02-07T06:30:44;26.63;;;16.40;;
44750;SDS011;30477;48.224;11.470;2023-02-07T06:33:10;28.25;;;15.43;;
44750;SDS011;30477;48.224;11.470;2023-02-07T06:35:35;26.98;;;15.15;;
44750;SDS011;30477;48.224;11.470;2023-02-07T06:38:00;24.17;;;14.53;;
44750;SDS011;30477;48.224;11.470;2023-02-07T06:40:26;26.10;;;15.27;;
44750;SDS011;30477;48.224;11.470;2023-02-07T06:42:51;28.58;;;15.68;;
44750;SDS011;30477;48.224;11.470;2023-02-07T06:45:16;27.87;;;15.60;;
44750;SDS011;30477;48.224;11.470;2023-02-07T06:47:42;25.90;;;14.63;;
44750;SDS011;30477;48.224;11.470;2023-02-07T06:50:07;28.00;;;15.50;;
44750;SDS011;30477;48.224;11.470;2023-02-07T06:52:33;25.00;;;14.90;;
44750;SDS011;30477;48.224;11.470;2023-02-07T06:54:58;25.70;;;15.77;;
44750;SDS011;30477;48.224;11.470;2023-02-07T06:57:23;25.37;;;15.70;;
44750;SDS011;30477;48.224;11.470;2023-02-07T06:59:49;24.67;;;15.33;;
44750;SDS011;30477;48.224;11.470;2023-02-07T07:02:14;24.13;;;14.52;;
44750;SDS011;30477;48.224;11.470;2023-02-07T07:04:41;25.65;;;14.85;;
44750;SDS011;30477;48.224;11.470;2023-02-07T07:07:06;26.13;;;15.67;;
44750;SDS011;30477;48.224;11.470;2023-02-07T07:09:31;26.75;;;15.77;;
44750;SDS011;30477;48.224;11.470;2023-02-07T07:11:57;26.80;;;15.10;;
44750;SDS011;30477;48.224;11.470;2023-02-07T07:14:22;27.33;;;15.70;;
44750;SDS011;30477;48.224;11.470;2023-02-07T07:16:48;25.67;;;15.17;;
44750;SDS011;30477;48.224;11.470;2023-02-07T07:19:13;25.73;;;15.07;;
44750;SDS011;30477;48.224;11.470;2023-02-07T07:21:38;27.80;;;14.57;;
44750;SDS011;30477;48.224;11.470;2023-02-07T07:24:04;24.20;;;14.63;;
44750;SDS011;30477;48.224;11.470;2023-02-07T07:26:29;24.95;;;15.10;;
44750;SDS011;30477;48.224;11.470;2023-02-07T07:28:55;22.80;;;14.50;;
44750;SDS011;30477;48.224;11.470;2023-02-07T07:31:24;27.48;;;14.40;;
44750;SDS011;30477;48.224;11.470;2023-02-07T07:33:49;25.10;;;14.32;;
44750;SDS011;30477;48.224;11.470;2023-02-07T07:36:14;24.83;;;14.67;;
44750;SDS011;30477;48.224;11.470;2023-02-07T07:38:40;24.03;;;14.40;;
44750;SDS011;30477;48.224;11.470;2023-02-07T07:41:05;25.97;;;14.27;;
44750;SDS011;30477;48.224;11.470;2023-02-07T07:43:31;26.77;;;14.35;;
44750;SDS011;30477;48.224;11.470;2023-02-07T07:45:56;27.93;;;15.70;;
44750;SDS011;30477;48.224;11.470;2023-02-07T07:48:24;23.98;;;14.70;;
44750;SDS011;30477;48.224;11.470;2023-02-07T07:50:50;24.67;;;14.77;;
44750;SDS011;30477;48.224;11.470;2023-02-07T07:53:15;23.73;;;14.27;;
44750;SDS011;30477;48.224;11.470;2023-02-07T07:55:42;25.17;;;15.23;;
44750;SDS011;30477;48.224;11.470;2023-02-07T07:58:13;27.52;;;15.02;;
44750;SDS011;30477;48.224;11.470;2023-02-07T08:00:38;26.93;;;14.80;;
44750;SDS011;30477;48.224;11.470;2023-02-07T08:03:04;26.37;;;14.80;;
44750;SDS011;30477;48.224;11.470;2023-02-07T08:05:29;26.83;;;16.00;;
44750;SDS011;30477;48.224;11.470;2023-02-07T08:07:55;26.00;;;15.25;;
44750;SDS011;30477;48.224;11.470;2023-02-07T08:10:20;24.90;;;15.33;;
44750;SDS011;30477;48.224;11.470;2023-02-07T08:12:45;23.97;;;15.20;;
44750;SDS011;30477;48.224;11.470;2023-02-07T08:15:11;24.60;;;14.93;;
44750;SDS011;30477;48.224;11.470;2023-02-07T08:17:37;23.92;;;15.45;;
44750;SDS011;30477;48.224;11.470;2023-02-07T08:20:03;24.02;;;14.57;;
44750;SDS011;30477;48.224;11.470;2023-02-07T08:22:29;26.58;;;15.32;;
44750;SDS011;30477;48.224;11.470;2023-02-07T08:24:54;23.58;;;14.73;;
44750;SDS011;30477;48.224;11.470;2023-02-07T08:27:20;26.93;;;16.07;;
44750;SDS011;30477;48.224;11.470;2023-02-07T08:29:45;29.03;;;15.90;;
44750;SDS011;30477;48.224;11.470;2023-02-07T08:32:10;28.57;;;16.37;;
44750;SDS011;30477;48.224;11.470;2023-02-07T08:34:36;27.67;;;15.30;;
44750;SDS011;30477;48.224;11.470;2023-02-07T08:37:05;26.93;;;15.30;;
44750;SDS011;30477;48.224;11.470;2023-02-07T08:39:32;25.45;;;15.88;;
44750;SDS011;30477;48.224;11.470;2023-02-07T08:41:58;25.73;;;15.75;;
44750;SDS011;30477;48.224;11.470;2023-02-07T08:44:24;30.60;;;15.52;;
44750;SDS011;30477;48.224;11.470;2023-02-07T08:46:49;27.85;;;16.55;;
44750;SDS011;30477;48.224;11.470;2023-02-07T08:49:15;27.47;;;15.53;;
44750;SDS011;30477;48.224;11.470;2023-02-07T08:51:40;26.93;;;14.87;;
44750;SDS011;30477;48.224;11.470;2023-02-07T08:54:06;27.33;;;15.50;;
44750;SDS011;30477;48.224;11.470;2023-02-07T08:56:32;21.35;;;14.00;;
44750;SDS011;30477;48.224;11.470;2023-02-07T08:58:57;26.87;;;16.07;;
44750;SDS011;30477;48.224;11.470;2023-02-07T09:01:23;27.83;;;17.23;;
44750;SDS011;30477;48.224;11.470;2023-02-07T09:03:48;30.50;;;16.83;;
44750;SDS011;30477;48.224;11.470;2023-02-07T09:06:14;25.50;;;15.13;;
44750;SDS011;30477;48.224;11.470;2023-02-07T09:08:39;29.05;;;16.25;;
44750;SDS011;30477;48.224;11.470;2023-02-07T09:11:04;26.37;;;15.67;;
44750;SDS011;30477;48.224;11.470;2023-02-07T09:13:30;30.47;;;16.67;;
44750;SDS011;30477;48.224;11.470;2023-02-07T09:15:56;30.33;;;17.30;;
44750;SDS011;30477;48.224;11.470;2023-02-07T09:18:22;28.33;;;17.05;;
44750;SDS011;30477;48.224;11.470;2023-02-07T09:20:49;28.75;;;17.88;;
44750;SDS011;30477;48.224;11.470;2023-02-07T09:23:14;28.52;;;17.17;;
44750;SDS011;30477;48.224;11.470;2023-02-07T09:25:44;30.85;;;18.25;;
44750;SDS011;30477;48.224;11.470;2023-02-07T09:28:12;29.13;;;17.88;;
44750;SDS011;30477;48.224;11.470;2023-02-07T09:30:41;31.20;;;18.75;;
44750;SDS011;30477;48.224;11.470;2023-02-07T09:33:08;29.48;;;17.13;;
44750;SDS011;30477;48.224;11.470;2023-02-07T09:35:38;29.98;;;17.23;;
44750;SDS011;30477;48.224;11.470;2023-02-07T09:38:05;30.30;;;18.08;;
44750;SDS011;30477;48.224;11.470;2023-02-07T09:40:33;28.80;;;17.73;;
44750;SDS011;30477;48.224;11.470;2023-02-07T09:46:03;31.90;;;18.85;;
44750;SDS011;30477;48.224;11.470;2023-02-07T09:48:42;30.15;;;19.08;;
44750;SDS011;30477;48.224;11.470;2023-02-07T09:51:12;28.83;;;17.85;;
44750;SDS011;30477;48.224;11.470;2023-02-07T09:53:50;32.75;;;19.50;;
44750;SDS011;30477;48.224;11.470;2023-02-07T09:56:19;22.02;;;14.27;;
44750;SDS011;30477;48.224;11.470;2023-02-07T10:01:25;32.13;;;19.45;;
44750;SDS011;30477;48.224;11.470;2023-02-07T10:06:26;30.70;;;18.88;;
44750;SDS011;30477;48.224;11.470;2023-02-07T10:08:53;33.03;;;19.10;;
44750;SDS011;30477;48.224;11.470;2023-02-07T10:27:28;31.15;;;18.92;;
44750;SDS011;30477;48.224;11.470;2023-02-07T10:32:38;30.85;;;18.00;;
44750;SDS011;30477;48.224;11.470;2023-02-07T10:35:17;32.33;;;17.38;;
44750;SDS011;30477;48.224;11.470;2023-02-07T10:37:45;27.20;;;17.65;;
44750;SDS011;30477;48.224;11.470;2023-02-07T10:40:15;30.75;;;17.55;;
44750;SDS011;30477;48.224;11.470;2023-02-07T10:42:52;30.88;;;17.52;;
44750;SDS011;30477;48.224;11.470;2023-02-07T10:45:22;26.13;;;15.60;;
44750;SDS011;30477;48.224;11.470;2023-02-07T10:47:48;26.90;;;16.17;;
44750;SDS011;30477;48.224;11.470;2023-02-07T10:50:18;24.70;;;16.13;;
44750;SDS011;30477;48.224;11.470;2023-02-07T10:52:47;25.60;;;15.82;;
44750;SDS011;30477;48.224;11.470;2023-02-07T10:55:17;26.10;;;15.00;;
44750;SDS011;30477;48.224;11.470;2023-02-07T10:57:51;25.63;;;15.93;;
44750;SDS011;30477;48.224;11.470;2023-02-07T11:00:28;25.42;;;14.23;;
44750;SDS011;30477;48.224;11.470;2023-02-07T11:03:05;24.10;;;13.75;;
44750;SDS011;30477;48.224;11.470;2023-02-07T11:05:37;21.67;;;13.07;;
44750;SDS011;30477;48.224;11.470;2023-02-07T11:10:40;21.33;;;13.02;;
44750;SDS011;30477;48.224;11.470;2023-02-07T11:13:21;26.50;;;14.10;;
44750;SDS011;30477;48.224;11.470;2023-02-07T11:18:23;23.40;;;13.15;;
44750;SDS011;30477;48.224;11.470;2023-02-07T11:20:55;23.80;;;12.68;;
44750;SDS011;30477;48.224;11.470;2023-02-07T11:23:21;19.98;;;12.43;;
44750;SDS011;30477;48.224;11.470;2023-02-07T11:25:47;20.77;;;12.73;;
44750;SDS011;30477;48.224;11.470;2023-02-07T11:28:21;21.52;;;12.13;;
44750;SDS011;30477;48.224;11.470;2023-02-07T11:30:54;19.38;;;12.07;;
44750;SDS011;30477;48.224;11.470;2023-02-07T11:33:27;17.35;;;11.55;;
44750;SDS011;30477;48.224;11.470;2023-02-07T11:38:30;17.38;;;10.95;;
44750;SDS011;30477;48.224;11.470;2023-02-07T11:41:00;17.25;;;11.50;;
44750;SDS011;30477;48.224;11.470;2023-02-07T11:43:31;15.80;;;10.15;;
44750;SDS011;30477;48.224;11.470;2023-02-07T11:45:59;18.27;;;10.93;;
44750;SDS011;30477;48.224;11.470;2023-02-07T11:48:31;17.33;;;10.68;;
44750;SDS011;30477;48.224;11.470;2023-02-07T11:51:01;16.48;;;9.82;;
44750;SDS011;30477;48.224;11.470;2023-02-07T11:53:38;16.02;;;10.00;;
44750;SDS011;30477;48.224;11.470;2023-02-07T11:56:19;15.73;;;10.10;;
44750;SDS011;30477;48.224;11.470;2023-02-07T11:59:21;15.50;;;9.15;;
44750;SDS011;30477;48.224;11.470;2023-02-07T12:01:48;13.82;;;9.15;;
44750;SDS011;30477;48.224;11.470;2023-02-07T12:04:23;13.93;;;8.90;;
44750;SDS011;30477;48.224;11.470;2023-02-07T12:06:54;17.05;;;8.63;;
44750;SDS011;30477;48.224;11.470;2023-02-07T12:11:48;14.37;;;9.47;;
44750;SDS011;30477;48.224;11.470;2023-02-07T12:14:31;14.13;;;8.27;;
44750;SDS011;30477;48.224;11.470;2023-02-07T12:17:04;12.38;;;8.10;;
44750;SDS011;30477;48.224;11.470;2023-02-07T12:19:34;14.13;;;9.07;;
44750;SDS011;30477;48.224;11.470;2023-02-07T12:22:07;14.98;;;8.43;;
44750;SDS011;30477;48.224;11.470;2023-02-07T12:24:41;12.15;;;8.77;;
44750;SDS011;30477;48.224;11.470;2023-02-07T12:27:13;13.73;;;8.18;;
44750;SDS011;30477;48.224;11.470;2023-02-07T12:32:27;13.65;;;8.85;;
44750;SDS011;30477;48.224;11.470;2023-02-07T12:35:14;14.18;;;9.32;;
44750;SDS011;30477;48.224;11.470;2023-02-07T12:51:42;14.23;;;9.05;;
44750;SDS011;30477;48.224;11.470;2023-02-07T13:00:19;13.38;;;8.70;;
44750;SDS011;30477;48.224;11.470;2023-02-07T13:09:11;13.10;;;8.20;;
44750;SDS011;30477;48.224;11.470;2023-02-07T13:14:15;14.70;;;8.45;;
44750;SDS011;30477;48.224;11.470;2023-02-07T13:22:38;14.88;;;8.93;;
44750;SDS011;30477;48.224;11.470;2023-02-07T13:25:29;17.02;;;8.68;;
44750;SDS011;30477;48.224;11.470;2023-02-07T13:27:59;19.10;;;8.65;;
44750;SDS011;30477;48.224;11.470;2023-02-07T13:30:29;15.75;;;9.50;;
44750;SDS011;30477;48.224;11.470;2023-02-07T13:32:56;14.83;;;9.23;;
44750;SDS011;30477;48.224;11.470;2023-02-07T13:35:25;16.48;;;9.30;;
44750;SDS011;30477;48.224;11.470;2023-02-07T13:43:17;15.63;;;9.88;;
44750;SDS011;30477;48.224;11.470;2023-02-07T13:49:00;17.55;;;9.15;;
44750;SDS011;30477;48.224;11.470;2023-02-07T13:51:59;18.52;;;10.00;;
44750;SDS011;30477;48.224;11.470;2023-02-07T13:57:01;17.17;;;9.55;;
44750;SDS011;30477;48.224;11.470;2023-02-07T14:02:39;21.40;;;9.68;;
44750;SDS011;30477;48.224;11.470;2023-02-07T14:05:09;16.50;;;10.00;;
44750;SDS011;30477;48.224;11.470;2023-02-07T14:07:47;20.52;;;10.27;;
44750;SDS011;30477;48.224;11.470;2023-02-07T14:10:33;16.70;;;9.90;;
44750;SDS011;30477;48.224;11.470;2023-02-07T14:13:14;17.05;;;9.90;;
44750;SDS011;30477;48.224;11.470;2023-02-07T14:36:42;15.73;;;9.13;;
44750;SDS011;30477;48.224;11.470;2023-02-07T14:41:42;17.63;;;10.02;;
44750;SDS011;30477;48.224;11.470;2023-02-07T14:44:21;16.00;;;9.65;;
44750;SDS011;30477;48.224;11.470;2023-02-07T14:46:50;22.23;;;11.18;;
44750;SDS011;30477;48.224;11.470;2023-02-07T14:51:52;26.73;;;13.93;;
44750;SDS011;30477;48.224;11.470;2023-02-07T14:54:31;25.58;;;14.90;;
44750;SDS011;30477;48.224;11.470;2023-02-07T15:02:36;27.10;;;13.60;;
44750;SDS011;30477;48.224;11.470;2023-02-07T15:08:15;24.83;;;13.55;;
44750;SDS011;30477;48.224;11.470;2023-02-07T15:10:44;24.08;;;13.32;;
44750;SDS011;30477;48.224;11.470;2023-02-07T15:13:21;23.65;;;13.65;;
44750;SDS011;30477;48.224;11.470;2023-02-07T15:16:11;23.02;;;12.90;;
44750;SDS011;30477;48.224;11.470;2023-02-07T15:21:33;21.42;;;12.80;;
44750;SDS011;30477;48.224;11.470;2023-02-07T15:29:20;21.48;;;12.70;;
44750;SDS011;30477;48.224;11.470;2023-02-07T15:31:47;23.10;;;12.70;;
44750;SDS011;30477;48.224;11.470;2023-02-07T15:34:13;21.48;;;12.15;;
44750;SDS011;30477;48.224;11.470;2023-02-07T15:36:42;21.27;;;12.32;;
44750;SDS011;30477;48.224;11.470;2023-02-07T15:39:20;23.25;;;12.85;;
44750;SDS011;30477;48.224;11.470;2023-02-07T15:41:48;28.40;;;13.40;;
44750;SDS011;30477;48.224;11.470;2023-02-07T15:44:28;23.30;;;12.35;;
44750;SDS011;30477;48.224;11.470;2023-02-07T15:46:56;22.95;;;12.63;;
44750;SDS011;30477;48.224;11.470;2023-02-07T15:49:29;20.25;;;12.18;;
44750;SDS011;30477;48.224;11.470;2023-02-07T15:54:29;23.08;;;12.02;;
44750;SDS011;30477;48.224;11.470;2023-02-07T15:56:58;19.33;;;11.00;;
44750;SDS011;30477;48.224;11.470;2023-02-07T15:59:26;20.60;;;11.37;;
44750;SDS011;30477;48.224;11.470;2023-02-07T16:01:54;22.50;;;12.73;;
44750;SDS011;30477;48.224;11.470;2023-02-07T16:04:23;24.70;;;13.35;;
44750;SDS011;30477;48.224;11.470;2023-02-07T16:06:57;23.52;;;13.13;;
44750;SDS011;30477;48.224;11.470;2023-02-07T16:09:34;20.83;;;11.93;;
44750;SDS011;30477;48.224;11.470;2023-02-07T16:14:55;22.13;;;12.85;;
44750;SDS011;30477;48.224;11.470;2023-02-07T16:19:48;23.13;;;12.15;;
44750;SDS011;30477;48.224;11.470;2023-02-07T16:22:19;20.38;;;12.13;;
44750;SDS011;30477;48.224;11.470;2023-02-07T16:24:51;22.63;;;12.65;;
44750;SDS011;30477;48.224;11.470;2023-02-07T16:27:21;21.67;;;12.70;;
44750;SDS011;30477;48.224;11.470;2023-02-07T16:29:52;21.60;;;12.45;;
44750;SDS011;30477;48.224;11.470;2023-02-07T16:32:18;22.20;;;12.23;;
44750;SDS011;30477;48.224;11.470;2023-02-07T16:34:44;19.65;;;12.07;;
44750;SDS011;30477;48.224;11.470;2023-02-07T16:37:10;22.80;;;11.60;;
44750;SDS011;30477;48.224;11.470;2023-02-07T16:39:36;23.50;;;12.23;;
44750;SDS011;30477;48.224;11.470;2023-02-07T16:42:04;17.58;;;11.25;;
44750;SDS011;30477;48.224;11.470;2023-02-07T16:44:32;27.52;;;13.85;;
44750;SDS011;30477;48.224;11.470;2023-02-07T16:46:59;20.90;;;11.65;;
44750;SDS011;30477;48.224;11.470;2023-02-07T16:49:25;22.40;;;12.23;;
44750;SDS011;30477;48.224;11.470;2023-02-07T16:51:54;20.77;;;12.10;;
44750;SDS011;30477;48.224;11.470;2023-02-07T16:54:20;21.02;;;12.15;;
44750;SDS011;30477;48.224;11.470;2023-02-07T16:56:47;20.10;;;12.03;;
44750;SDS011;30477;48.224;11.470;2023-02-07T16:59:15;22.30;;;12.48;;
44750;SDS011;30477;48.224;11.470;2023-02-07T17:01:43;22.20;;;12.32;;
44750;SDS011;30477;48.224;11.470;2023-02-07T17:06:35;21.63;;;13.50;;
44750;SDS011;30477;48.224;11.470;2023-02-07T17:09:01;23.67;;;13.63;;
44750;SDS011;30477;48.224;11.470;2023-02-07T17:11:27;23.67;;;13.57;;
44750;SDS011;30477;48.224;11.470;2023-02-07T17:13:56;21.42;;;12.52;;
44750;SDS011;30477;48.224;11.470;2023-02-07T17:16:23;20.27;;;12.25;;
44750;SDS011;30477;48.224;11.470;2023-02-07T17:18:50;23.30;;;12.85;;
44750;SDS011;30477;48.224;11.470;2023-02-07T17:21:16;24.60;;;13.75;;
44750;SDS011;30477;48.224;11.470;2023-02-07T17:23:42;25.60;;;14.20;;
44750;SDS011;30477;48.224;11.470;2023-02-07T17:26:24;22.80;;;13.73;;